Time;durP1;ratioP1;P1;durP2;ratioP2;P2;SDS_P1;SDS_P2;PMS_P1;PMS_P2;Temp;Humidity;BMP_temperature;BMP_pressure;BME280_temperature;BME280_humidity;BME280_pressure;Samples;Min_cycle;Max_cycle;Signal;HPM_P1;HPM_P2
2023/05/13 00:00:04;;;;;;;17.85;15.95;;;12.10;99.90;;;;;;5062813;28;21010;-58
2023/05/13 00:02:31;;;;;;;18.77;16.80;;;12.10;99.90;;;;;;5064058;28;20789;-56
2023/05/13 00:04:58;;;;;;;20.52;17.27;;;12.10;99.90;;;;;;5064285;28;20456;-57
2023/05/13 00:07:24;;;;;;;20.70;17.40;;;12.00;99.90;;;;;;5065189;28;20419;-55
2023/05/13 00:09:52;;;;;;;20.98;17.08;;;12.00;99.90;;;;;;5063928;28;20413;-60
2023/05/13 00:12:19;;;;;;;20.48;17.10;;;12.00;99.90;;;;;;5063499;28;20412;-55
2023/05/13 00:14:46;;;;;;;20.70;18.40;;;12.00;99.90;;;;;;5064310;28;20407;-55
2023/05/13 00:17:13;;;;;;;21.33;18.75;;;12.00;99.90;;;;;;5064272;28;20424;-55
2023/05/13 00:19:40;;;;;;;19.50;17.40;;;12.00;99.90;;;;;;5063738;28;20457;-55
2023/05/13 00:22:06;;;;;;;20.20;18.00;;;12.00;99.90;;;;;;5062301;28;20775;-54
2023/05/13 00:24:33;;;;;;;23.08;17.52;;;12.00;99.90;;;;;;5062842;28;20417;-55
2023/05/13 00:27:01;;;;;;;21.02;18.83;;;12.00;99.90;;;;;;5061658;28;20441;-53
2023/05/13 00:29:27;;;;;;;21.43;18.67;;;11.90;99.90;;;;;;5063761;28;20608;-52
2023/05/13 00:31:54;;;;;;;20.17;17.70;;;12.00;99.90;;;;;;5064771;28;20420;-50
2023/05/13 00:34:21;;;;;;;20.88;17.20;;;12.00;99.90;;;;;;5061440;28;20414;-52
2023/05/13 00:36:47;;;;;;;21.95;18.10;;;12.00;99.90;;;;;;5062475;28;20421;-53
2023/05/13 00:39:14;;;;;;;19.75;16.92;;;12.00;99.90;;;;;;5066306;28;20415;-49
2023/05/13 00:41:41;;;;;;;20.58;18.35;;;11.90;99.90;;;;;;5061362;28;20440;-54
2023/05/13 00:44:09;;;;;;;23.88;18.85;;;11.90;99.90;;;;;;5062065;28;20427;-54
2023/05/13 00:46:36;;;;;;;20.83;18.02;;;11.80;99.90;;;;;;5064240;28;20420;-56
2023/05/13 00:49:04;;;;;;;20.02;17.92;;;11.80;99.90;;;;;;5064821;28;20468;-57
2023/05/13 00:51:32;;;;;;;23.13;18.20;;;11.70;99.90;;;;;;5064115;28;20420;-55
2023/05/13 00:53:59;;;;;;;19.75;17.02;;;11.70;99.90;;;;;;5062628;28;20411;-53
2023/05/13 00:56:26;;;;;;;21.63;17.70;;;11.70;99.90;;;;;;5067160;28;20423;-54
2023/05/13 00:58:53;;;;;;;23.15;17.75;;;11.70;99.90;;;;;;5061391;28;20413;-52
2023/05/13 01:01:30;;;;;;;19.02;17.02;;;11.70;99.90;;;;;;5061400;28;20483;-52
2023/05/13 01:04:07;;;;;;;19.35;17.05;;;11.70;99.90;;;;;;5052503;28;20427;-52
2023/05/13 01:06:45;;;;;;;19.65;17.45;;;11.60;99.90;;;;;;5061659;28;20550;-56
2023/05/13 01:09:21;;;;;;;19.90;17.80;;;11.60;99.90;;;;;;5061240;28;20416;-50
2023/05/13 01:11:50;;;;;;;20.17;18.15;;;11.60;99.90;;;;;;5062645;28;20412;-53
2023/05/13 01:14:24;;;;;;;18.48;16.48;;;11.50;99.90;;;;;;5063015;28;20473;-50
2023/05/13 01:16:58;;;;;;;20.27;18.07;;;11.50;99.90;;;;;;5063163;28;20508;-53
2023/05/13 01:19:38;;;;;;;19.88;17.88;;;11.50;99.90;;;;;;5061465;28;20477;-57
2023/05/13 01:22:06;;;;;;;18.98;17.05;;;11.40;99.90;;;;;;5061927;28;20411;-57
2023/05/13 01:24:33;;;;;;;19.38;17.48;;;11.40;99.90;;;;;;5062823;28;20798;-58
2023/05/13 01:27:00;;;;;;;21.77;18.65;;;11.40;99.90;;;;;;5060959;28;20413;-57
2023/05/13 01:29:27;;;;;;;20.00;17.77;;;11.30;99.90;;;;;;5061184;28;20420;-55
2023/05/13 01:31:56;;;;;;;20.85;18.17;;;11.30;99.90;;;;;;5063716;28;20416;-59
2023/05/13 01:34:24;;;;;;;20.75;18.58;;;11.30;99.90;;;;;;5063712;28;20449;-56
2023/05/13 01:36:51;;;;;;;19.95;17.83;;;11.30;99.90;;;;;;5066984;28;20419;-55
2023/05/13 01:39:20;;;;;;;19.95;17.83;;;11.30;99.90;;;;;;5063922;28;20422;-55
2023/05/13 01:41:47;;;;;;;20.38;18.20;;;11.30;99.90;;;;;;5060238;28;20418;-56
2023/05/13 01:44:14;;;;;;;21.45;19.15;;;11.20;99.90;;;;;;5062960;28;20477;-55
2023/05/13 01:46:43;;;;;;;19.98;17.98;;;11.20;99.90;;;;;;5061818;28;20905;-54
2023/05/13 01:49:09;;;;;;;19.33;17.35;;;11.20;99.90;;;;;;5062538;28;20408;-53
2023/05/13 01:51:36;;;;;;;19.42;17.52;;;11.20;99.90;;;;;;5061458;28;20465;-56
2023/05/13 01:54:03;;;;;;;23.38;18.40;;;11.10;99.90;;;;;;5062816;28;20419;-55
2023/05/13 01:56:31;;;;;;;20.20;17.13;;;11.10;99.90;;;;;;5060570;28;20411;-55
2023/05/13 01:58:58;;;;;;;19.00;16.95;;;11.10;99.90;;;;;;5061845;28;20475;-53
2023/05/13 02:01:24;;;;;;;19.05;16.13;;;11.10;99.90;;;;;;5050860;28;20991;-52
2023/05/13 02:03:51;;;;;;;18.05;16.23;;;11.10;99.90;;;;;;5061515;28;20425;-53
2023/05/13 02:06:18;;;;;;;18.63;16.27;;;11.10;99.90;;;;;;5062726;28;20411;-54
2023/05/13 02:08:45;;;;;;;18.77;16.77;;;11.10;99.90;;;;;;5067888;28;20910;-54
2023/05/13 02:11:11;;;;;;;18.95;16.80;;;11.20;99.90;;;;;;5061895;28;20403;-57
2023/05/13 02:13:39;;;;;;;21.20;18.27;;;11.20;99.90;;;;;;5059806;28;20747;-57
2023/05/13 02:16:06;;;;;;;21.98;19.67;;;11.00;99.90;;;;;;5060982;28;20467;-54
2023/05/13 02:18:32;;;;;;;22.37;19.83;;;11.00;99.90;;;;;;5062611;28;20474;-52
2023/05/13 02:20:59;;;;;;;22.45;19.52;;;11.00;99.90;;;;;;5060887;28;20423;-58
2023/05/13 02:23:26;;;;;;;23.38;19.15;;;11.00;99.90;;;;;;5058965;28;20422;-56
2023/05/13 02:25:52;;;;;;;21.95;18.77;;;11.00;99.90;;;;;;5050727;28;20406;-55
2023/05/13 02:28:19;;;;;;;20.08;17.83;;;11.00;99.90;;;;;;5050550;28;20940;-54
2023/05/13 02:30:47;;;;;;;19.90;17.52;;;11.00;99.90;;;;;;5050703;28;20471;-56
2023/05/13 02:33:14;;;;;;;20.63;18.42;;;11.00;99.90;;;;;;5060151;28;20465;-56
2023/05/13 02:35:40;;;;;;;21.23;18.83;;;11.00;99.90;;;;;;5059859;28;20486;-55
2023/05/13 02:38:09;;;;;;;21.13;18.83;;;10.90;99.90;;;;;;5065888;28;20749;-57
2023/05/13 02:40:36;;;;;;;23.02;19.77;;;10.90;99.90;;;;;;5059499;28;20429;-57
2023/05/13 02:43:03;;;;;;;22.35;19.88;;;10.90;99.90;;;;;;5061780;28;20420;-59
2023/05/13 02:45:30;;;;;;;24.80;19.63;;;10.90;99.90;;;;;;5060266;28;20408;-56
2023/05/13 02:47:58;;;;;;;21.75;18.85;;;10.90;99.90;;;;;;5062845;28;20415;-57
2023/05/13 02:50:25;;;;;;;23.23;19.38;;;10.90;99.90;;;;;;5061219;28;20896;-58
2023/05/13 02:52:52;;;;;;;29.50;19.52;;;10.90;99.90;;;;;;5061771;28;20458;-57
2023/05/13 02:55:18;;;;;;;21.92;18.88;;;10.90;99.90;;;;;;5059251;28;20472;-59
2023/05/13 02:57:45;;;;;;;25.02;19.60;;;10.80;99.90;;;;;;5060335;28;20884;-55
2023/05/13 03:00:13;;;;;;;23.77;18.98;;;10.80;99.90;;;;;;5061140;28;20427;-55
2023/05/13 03:02:39;;;;;;;24.02;19.45;;;10.70;99.90;;;;;;5061426;28;20467;-50
2023/05/13 03:05:08;;;;;;;26.17;20.13;;;10.70;99.90;;;;;;5059754;28;20409;-57
2023/05/13 03:07:35;;;;;;;24.95;19.83;;;10.70;99.90;;;;;;5062803;28;20481;-54
2023/05/13 03:10:02;;;;;;;25.55;21.05;;;10.70;99.90;;;;;;5062935;28;20415;-55
2023/05/13 03:12:28;;;;;;;24.23;19.83;;;10.60;99.90;;;;;;5062878;28;21097;-59
2023/05/13 03:14:55;;;;;;;24.65;19.25;;;10.60;99.90;;;;;;5067051;28;20415;-57
2023/05/13 03:17:22;;;;;;;23.95;19.33;;;10.60;99.90;;;;;;5064514;28;20417;-55
2023/05/13 03:19:48;;;;;;;22.60;19.00;;;10.60;99.90;;;;;;5054335;28;20413;-52
2023/05/13 03:22:16;;;;;;;24.13;19.23;;;10.60;99.90;;;;;;5058240;28;20473;-56
2023/05/13 03:24:43;;;;;;;25.27;18.80;;;10.60;99.90;;;;;;5065388;28;20834;-56
2023/05/13 03:27:09;;;;;;;25.07;19.00;;;10.50;99.90;;;;;;5064020;28;20456;-55
2023/05/13 03:29:36;;;;;;;24.25;19.30;;;10.50;99.90;;;;;;5063313;28;20467;-56
2023/05/13 03:32:05;;;;;;;28.88;19.75;;;10.50;99.90;;;;;;5065171;28;20411;-53
2023/05/13 03:34:32;;;;;;;26.85;20.95;;;10.40;99.90;;;;;;5064789;28;20779;-58
2023/05/13 03:36:58;;;;;;;29.40;21.10;;;10.40;99.90;;;;;;5066818;28;20490;-56
2023/05/13 03:39:26;;;;;;;27.00;21.50;;;10.30;99.90;;;;;;5064007;28;20469;-58
2023/05/13 03:41:53;;;;;;;23.08;18.70;;;10.30;99.90;;;;;;5064723;28;20424;-59
2023/05/13 03:44:19;;;;;;;22.67;19.38;;;10.30;99.90;;;;;;5063310;28;20421;-59
2023/05/13 03:46:46;;;;;;;24.50;20.42;;;10.20;99.90;;;;;;5066627;28;20757;-52
2023/05/13 03:49:13;;;;;;;24.67;19.58;;;10.20;99.90;;;;;;5062614;28;20413;-56
2023/05/13 03:51:39;;;;;;;28.87;21.40;;;10.20;99.90;;;;;;5064896;28;20469;-56
2023/05/13 03:54:06;;;;;;;27.00;19.88;;;10.20;99.90;;;;;;5062560;28;20424;-56
2023/05/13 03:56:34;;;;;;;25.75;21.40;;;10.20;99.90;;;;;;5064917;28;20420;-51
2023/05/13 03:59:00;;;;;;;25.00;20.73;;;10.20;99.90;;;;;;5064642;28;20419;-56
2023/05/13 04:01:27;;;;;;;27.75;21.20;;;10.20;99.90;;;;;;5061873;28;20913;-56
2023/05/13 04:03:53;;;;;;;28.77;21.92;;;10.30;99.90;;;;;;5065979;28;20418;-55
2023/05/13 04:06:20;;;;;;;29.27;22.48;;;10.30;99.90;;;;;;5065771;28;20445;-54
2023/05/13 04:08:48;;;;;;;26.83;21.70;;;10.30;99.90;;;;;;5067966;28;20472;-58
2023/05/13 04:11:14;;;;;;;25.17;22.20;;;10.20;99.90;;;;;;5064069;28;20439;-57
2023/05/13 04:13:44;;;;;;;26.77;22.05;;;10.20;99.90;;;;;;5062476;28;20414;-57
2023/05/13 04:16:11;;;;;;;27.33;21.92;;;10.30;99.90;;;;;;5063016;28;20421;-54
2023/05/13 04:18:38;;;;;;;27.17;22.33;;;10.30;99.90;;;;;;5062404;28;20726;-54
2023/05/13 04:21:06;;;;;;;27.52;20.70;;;10.30;99.90;;;;;;5063074;28;20446;-57
2023/05/13 04:23:33;;;;;;;25.70;20.95;;;10.30;99.90;;;;;;5064661;28;20426;-57
2023/05/13 04:26:00;;;;;;;25.00;20.33;;;10.30;99.90;;;;;;5064164;28;20826;-56
2023/05/13 04:28:26;;;;;;;23.23;20.57;;;10.40;99.90;;;;;;5063796;28;20415;-58
2023/05/13 04:30:54;;;;;;;25.42;21.15;;;10.40;99.90;;;;;;5061567;28;20952;-56
2023/05/13 04:33:21;;;;;;;24.20;20.00;;;10.40;99.90;;;;;;5052829;28;20781;-57
2023/05/13 04:35:48;;;;;;;25.00;21.05;;;10.40;99.90;;;;;;5055340;28;20481;-57
2023/05/13 04:38:14;;;;;;;23.95;20.23;;;10.50;99.90;;;;;;5068259;28;20420;-54
2023/05/13 04:40:41;;;;;;;25.77;20.73;;;10.50;99.90;;;;;;5061755;28;20925;-52
2023/05/13 04:43:07;;;;;;;23.70;20.57;;;10.50;99.90;;;;;;5064134;28;20412;-55
2023/05/13 04:45:35;;;;;;;26.23;21.17;;;10.60;99.90;;;;;;5063014;28;20554;-54
2023/05/13 04:48:03;;;;;;;25.70;21.45;;;10.60;99.90;;;;;;5063377;28;20423;-50
2023/05/13 04:50:30;;;;;;;23.75;20.08;;;10.60;99.90;;;;;;5061828;28;20409;-50
2023/05/13 04:52:57;;;;;;;25.30;19.95;;;10.60;99.90;;;;;;5062332;28;20455;-55
2023/05/13 04:55:24;;;;;;;27.02;20.85;;;10.70;99.90;;;;;;5061574;28;20417;-52
2023/05/13 04:57:50;;;;;;;27.75;22.60;;;10.70;99.90;;;;;;5062391;28;20891;-51
2023/05/13 05:00:17;;;;;;;24.73;21.98;;;10.80;99.90;;;;;;5063448;28;20412;-55
2023/05/13 05:02:44;;;;;;;29.25;22.73;;;10.70;99.90;;;;;;5062140;28;20429;-54
2023/05/13 05:05:12;;;;;;;25.38;21.50;;;10.70;99.90;;;;;;5062066;28;20770;-52
2023/05/13 05:07:40;;;;;;;26.42;21.80;;;10.80;99.90;;;;;;5059355;28;21190;-51
2023/05/13 05:10:08;;;;;;;24.35;21.73;;;10.80;99.90;;;;;;5067191;28;20415;-50
2023/05/13 05:12:36;;;;;;;26.80;21.92;;;11.00;99.90;;;;;;5061447;28;20417;-54
2023/05/13 05:15:03;;;;;;;25.15;22.17;;;11.00;99.90;;;;;;5067833;28;20789;-55
2023/05/13 05:17:31;;;;;;;23.52;21.02;;;11.10;99.90;;;;;;5065204;28;20473;-54
2023/05/13 05:19:58;;;;;;;22.90;20.30;;;11.10;99.90;;;;;;5064446;28;20480;-58
2023/05/13 05:22:26;;;;;;;24.45;19.30;;;11.20;99.90;;;;;;5064923;28;20424;-50
2023/05/13 05:24:53;;;;;;;20.10;18.00;;;11.10;99.90;;;;;;5064258;28;20413;-53
2023/05/13 05:27:19;;;;;;;21.65;19.15;;;11.00;99.90;;;;;;5060743;28;20421;-52
2023/05/13 05:29:46;;;;;;;21.88;18.70;;;11.10;99.90;;;;;;5062211;28;20460;-55
2023/05/13 05:32:13;;;;;;;20.83;18.63;;;11.10;99.90;;;;;;5066812;28;20421;-50
2023/05/13 05:34:40;;;;;;;21.20;18.60;;;11.20;99.90;;;;;;5060439;28;20947;-52
2023/05/13 05:37:06;;;;;;;20.08;17.90;;;11.30;99.90;;;;;;5061091;28;20445;-59
2023/05/13 05:39:35;;;;;;;20.77;18.58;;;11.40;99.90;;;;;;5061619;28;20473;-55
2023/05/13 05:42:01;;;;;;;20.98;18.75;;;11.40;99.90;;;;;;5059847;28;20429;-57
2023/05/13 05:44:28;;;;;;;20.25;18.02;;;11.50;99.90;;;;;;5061889;28;20601;-57
2023/05/13 05:46:54;;;;;;;20.98;18.13;;;11.50;99.90;;;;;;5062903;28;20411;-58
2023/05/13 05:49:21;;;;;;;19.98;17.88;;;11.60;99.90;;;;;;5060777;28;20425;-57
2023/05/13 05:51:48;;;;;;;19.98;17.73;;;11.70;99.90;;;;;;5062324;28;20415;-57
2023/05/13 05:54:14;;;;;;;21.27;16.90;;;11.70;99.90;;;;;;5060126;28;20478;-58
2023/05/13 05:56:42;;;;;;;19.75;17.65;;;11.80;99.90;;;;;;5061805;28;20465;-56
2023/05/13 05:59:09;;;;;;;18.70;16.35;;;11.90;99.90;;;;;;5060695;28;20829;-57
2023/05/13 06:01:36;;;;;;;22.30;17.13;;;12.00;99.90;;;;;;5061916;28;20473;-58
2023/05/13 06:04:02;;;;;;;19.02;15.93;;;12.00;99.90;;;;;;5063968;28;21026;-54
2023/05/13 06:06:29;;;;;;;18.45;16.45;;;12.00;99.90;;;;;;5064849;28;20415;-59
2023/05/13 06:08:56;;;;;;;23.60;16.60;;;12.10;99.90;;;;;;5063662;28;20889;-53
2023/05/13 06:11:22;;;;;;;20.25;16.20;;;12.20;99.90;;;;;;5059662;28;20463;-54
2023/05/13 06:13:50;;;;;;;22.20;16.93;;;12.30;99.90;;;;;;5051040;28;20454;-58
2023/05/13 06:16:17;;;;;;;17.80;15.93;;;12.40;99.90;;;;;;5051136;28;20414;-57
2023/05/13 06:18:44;;;;;;;20.00;17.95;;;12.40;99.90;;;;;;5059100;28;21046;-58
2023/05/13 06:21:10;;;;;;;19.53;17.37;;;12.50;99.90;;;;;;5062745;28;20431;-59
2023/05/13 06:23:37;;;;;;;22.13;17.23;;;12.60;99.90;;;;;;5064119;28;20493;-57
2023/05/13 06:26:04;;;;;;;20.23;16.02;;;12.80;99.90;;;;;;5061148;28;20419;-55
2023/05/13 06:28:30;;;;;;;21.15;17.65;;;12.90;99.90;;;;;;5061479;28;20420;-55
2023/05/13 06:30:58;;;;;;;25.10;18.80;;;13.00;99.90;;;;;;5063765;28;20410;-52
2023/05/13 06:33:26;;;;;;;23.65;21.15;;;13.00;99.90;;;;;;5061167;28;20980;-56
2023/05/13 06:35:52;;;;;;;24.15;21.30;;;12.90;99.90;;;;;;5062777;28;20419;-58
2023/05/13 06:38:19;;;;;;;25.15;21.60;;;12.80;99.90;;;;;;5065660;28;20415;-57
2023/05/13 06:40:46;;;;;;;24.80;20.45;;;12.80;99.90;;;;;;5063221;28;20427;-58
2023/05/13 06:43:13;;;;;;;24.83;21.13;;;12.80;99.90;;;;;;5064856;28;20516;-54
2023/05/13 06:45:40;;;;;;;21.70;19.30;;;12.70;99.90;;;;;;5063118;28;20419;-58
2023/05/13 06:48:08;;;;;;;21.52;16.52;;;12.90;99.90;;;;;;5062193;28;20473;-57
2023/05/13 06:50:34;;;;;;;18.67;15.55;;;13.10;99.90;;;;;;5059693;28;20417;-56
2023/05/13 06:53:01;;;;;;;17.10;14.60;;;13.20;99.90;;;;;;5060383;28;20824;-59
2023/05/13 06:55:28;;;;;;;15.40;13.80;;;13.20;99.90;;;;;;5061661;28;21109;-54
2023/05/13 06:57:54;;;;;;;14.77;13.07;;;13.30;99.90;;;;;;5060581;28;20460;-58
2023/05/13 07:00:22;;;;;;;16.48;14.77;;;13.30;99.90;;;;;;5059345;28;20405;-57
2023/05/13 07:02:48;;;;;;;15.45;13.85;;;13.30;99.90;;;;;;5060044;28;20815;-56
2023/05/13 07:05:16;;;;;;;16.33;14.63;;;13.40;99.90;;;;;;5060966;28;20479;-57
2023/05/13 07:07:43;;;;;;;15.40;13.77;;;13.50;99.90;;;;;;5062523;28;20419;-58
2023/05/13 07:10:10;;;;;;;15.70;13.75;;;13.50;99.90;;;;;;5057429;28;20416;-56
2023/05/13 07:12:37;;;;;;;14.70;13.20;;;13.70;99.90;;;;;;5061968;28;20473;-58
2023/05/13 07:15:04;;;;;;;17.67;13.90;;;14.00;99.90;;;;;;5059962;28;20417;-58
2023/05/13 07:17:31;;;;;;;13.73;11.40;;;14.40;99.90;;;;;;5059912;28;20421;-56
2023/05/13 07:19:58;;;;;;;12.52;11.15;;;14.80;94.00;;;;;;5050172;28;20868;-56
2023/05/13 07:22:26;;;;;;;12.05;10.85;;;15.00;1.00;;;;;;5054352;28;20510;-56
2023/05/13 07:24:53;;;;;;;12.60;10.90;;;15.20;1.00;;;;;;5061468;28;20472;-59
2023/05/13 07:27:20;;;;;;;12.27;10.13;;;15.10;99.90;;;;;;5060207;28;20428;-55
2023/05/13 07:29:47;;;;;;;14.43;10.10;;;15.20;1.00;;;;;;5058983;28;20424;-59
2023/05/13 07:32:13;;;;;;;14.10;9.68;;;15.30;1.00;;;;;;5061194;28;20462;-56
2023/05/13 07:34:40;;;;;;;11.65;9.00;;;15.50;1.00;;;;;;5060693;28;20414;-54
2023/05/13 07:37:07;;;;;;;10.63;9.03;;;15.70;1.00;;;;;;5060113;28;20423;-59
2023/05/13 07:39:35;;;;;;;12.60;9.17;;;15.90;1.00;;;;;;5062202;28;20451;-57
2023/05/13 07:42:03;;;;;;;12.80;9.02;;;16.00;99.90;;;;;;5060838;28;20489;-57
2023/05/13 07:44:29;;;;;;;14.00;9.77;;;16.00;99.90;;;;;;5059548;28;20413;-59
2023/05/13 07:46:56;;;;;;;10.27;8.27;;;16.00;1.00;;;;;;5060699;28;20419;-56
2023/05/13 07:49:22;;;;;;;13.15;10.10;;;16.00;1.00;;;;;;5058528;28;20421;-55
2023/05/13 07:51:49;;;;;;;13.88;9.93;;;16.10;99.90;;;;;;5058761;28;20478;-56
2023/05/13 07:54:16;;;;;;;11.40;8.80;;;16.30;99.90;;;;;;5058760;28;20452;-60
2023/05/13 07:56:45;;;;;;;17.70;9.07;;;16.50;99.90;;;;;;5063052;28;20427;-59
2023/05/13 07:59:12;;;;;;;12.30;8.95;;;16.60;99.90;;;;;;5064690;28;20506;-59
2023/05/13 08:01:38;;;;;;;11.63;9.00;;;16.80;99.90;;;;;;5062714;28;20484;-59
2023/05/13 08:04:05;;;;;;;10.45;8.70;;;16.90;99.90;;;;;;5067779;28;20422;-57
2023/05/13 08:06:32;;;;;;;10.25;7.97;;;17.10;99.90;;;;;;5063856;28;20421;-58
2023/05/13 08:08:58;;;;;;;12.50;8.60;;;17.30;99.90;;;;;;5071811;28;20418;-56
2023/05/13 08:11:25;;;;;;;11.32;8.60;;;17.40;99.90;;;;;;5062031;28;20421;-57
2023/05/13 08:13:53;;;;;;;10.50;8.43;;;17.60;40.20;;;;;;5059990;28;20436;-56
2023/05/13 08:16:19;;;;;;;10.48;8.05;;;17.80;99.90;;;;;;5065626;28;20409;-57
2023/05/13 08:18:46;;;;;;;8.60;7.40;;;17.90;8.80;;;;;;5061459;28;20417;-62
2023/05/13 08:21:13;;;;;;;10.55;6.75;;;17.40;1.00;;;;;;5063077;28;20472;-58
2023/05/13 08:23:42;;;;;;;9.48;6.60;;;17.60;1.00;;;;;;5064842;28;20434;-56
2023/05/13 08:26:09;;;;;;;10.20;6.82;;;17.80;1.00;;;;;;5061655;28;20478;-57
2023/05/13 08:28:36;;;;;;;7.80;6.47;;;17.70;1.00;;;;;;5062533;28;20421;-55
2023/05/13 08:31:04;;;;;;;8.32;6.38;;;17.70;1.00;;;;;;5064014;28;20455;-57
2023/05/13 08:33:32;;;;;;;7.00;6.30;;;17.60;99.90;;;;;;5064415;28;20878;-54
2023/05/13 08:36:00;;;;;;;7.03;6.10;;;17.70;1.00;;;;;;5062952;28;20495;-60
2023/05/13 08:38:27;;;;;;;8.00;6.93;;;17.80;1.00;;;;;;5066058;28;20521;-58
2023/05/13 08:40:53;;;;;;;9.15;6.70;;;18.10;1.00;;;;;;5069673;28;20899;-60
2023/05/13 08:43:22;;;;;;;11.85;7.10;;;18.40;1.00;;;;;;5064098;28;20427;-58
2023/05/13 08:45:52;;;;;;;7.93;6.97;;;18.40;1.00;;;;;;5062552;28;20407;-62
2023/05/13 08:48:20;;;;;;;10.90;7.70;;;18.70;1.00;;;;;;5063285;28;21013;-54
2023/05/13 08:50:47;;;;;;;9.03;7.20;;;18.70;1.00;;;;;;5062262;28;20416;-64
2023/05/13 08:53:17;;;;;;;10.48;7.68;;;18.80;1.00;;;;;;5070684;28;20419;-59
2023/05/13 08:55:44;;;;;;;10.45;7.47;;;18.90;99.90;;;;;;5067328;28;20506;-60
2023/05/13 08:58:11;;;;;;;9.52;7.30;;;18.70;99.90;;;;;;5063676;28;20419;-58
2023/05/13 09:00:39;;;;;;;10.32;8.02;;;18.80;99.90;;;;;;5061116;28;20424;-58
2023/05/13 09:03:06;;;;;;;9.10;8.23;;;19.10;1.00;;;;;;5061406;28;20423;-57
2023/05/13 09:05:36;;;;;;;9.55;8.65;;;19.20;1.00;;;;;;5062317;28;20452;-58
2023/05/13 09:08:08;;;;;;;10.82;9.73;;;18.80;1.00;;;;;;5066309;28;20811;-58
2023/05/13 09:10:35;;;;;;;10.32;9.32;;;18.90;1.00;;;;;;5059317;28;20895;-57
2023/05/13 09:13:02;;;;;;;9.40;8.50;;;19.10;1.00;;;;;;5062690;28;20450;-59
2023/05/13 09:15:30;;;;;;;9.45;7.72;;;19.10;99.90;;;;;;5060951;28;20429;-58
2023/05/13 09:17:59;;;;;;;9.18;8.10;;;19.10;99.90;;;;;;5062016;28;20479;-57
2023/05/13 09:20:27;;;;;;;11.20;8.65;;;19.20;99.90;;;;;;5059895;28;20413;-57
2023/05/13 09:22:56;;;;;;;9.63;7.82;;;19.20;99.90;;;;;;5064239;28;20820;-58
2023/05/13 09:25:24;;;;;;;11.93;7.97;;;19.50;99.90;;;;;;5063781;28;20973;-59
2023/05/13 09:27:54;;;;;;;11.68;7.10;;;19.50;99.90;;;;;;5062026;28;20423;-54
2023/05/13 09:30:21;;;;;;;9.82;7.40;;;19.60;99.90;;;;;;5062677;28;20407;-53
2023/05/13 09:33:06;;;;;;;8.82;5.95;;;19.80;99.90;;;;;;5063154;28;20415;-58
2023/05/13 09:35:33;;;;;;;9.10;6.40;;;19.90;99.90;;;;;;5063590;28;20541;-59
2023/05/13 09:38:01;;;;;;;9.07;6.13;;;20.10;99.90;;;;;;5065089;28;20474;-59
2023/05/13 09:40:28;;;;;;;7.63;6.05;;;20.10;99.90;;;;;;5058747;28;20411;-56
2023/05/13 09:42:57;;;;;;;9.77;6.57;;;20.10;99.90;;;;;;5062386;28;20459;-57
2023/05/13 09:45:25;;;;;;;9.05;6.07;;;;;;;;;;5060103;28;20809;-60
2023/05/13 09:47:52;;;;;;;9.05;6.60;;;;;;;;;;5061026;28;20478;-57
2023/05/13 09:50:19;;;;;;;8.18;6.40;;;;;;;;;;5062225;28;20418;-59
2023/05/13 09:52:46;;;;;;;6.70;6.00;;;;;;;;;;5065092;28;20830;-59
2023/05/13 09:55:14;;;;;;;7.70;5.90;;;;;;;;;;5060883;28;20477;-57
2023/05/13 09:57:42;;;;;;;9.93;6.20;;;;;;;;;;5057517;28;20413;-58
2023/05/13 10:00:10;;;;;;;10.30;6.13;;;;;;;;;;5063081;28;20415;-59
2023/05/13 10:02:38;;;;;;;8.67;5.70;;;;;;;;;;5061457;28;20427;-60
2023/05/13 10:05:06;;;;;;;8.02;5.43;;;;;;;;;;5061423;28;20808;-59
2023/05/13 10:07:33;;;;;;;7.50;5.37;;;;;;;;;;5067058;28;20437;-56
2023/05/13 10:10:02;;;;;;;8.95;4.97;;;;;;;;;;5061879;28;20491;-59
2023/05/13 10:12:31;;;;;;;8.30;5.63;;;;;;;;;;5059845;28;20418;-60
2023/05/13 10:14:59;;;;;;;11.27;5.65;;;;;;;;;;5061165;28;20418;-57
2023/05/13 10:17:26;;;;;;;6.88;5.22;;;;;;;;;;5060877;28;20421;-60
2023/05/13 10:19:54;;;;;;;8.40;5.22;;;;;;;;;;5058938;28;20417;-58
2023/05/13 10:22:26;;;;;;;7.10;5.40;;;;;;;;;;5060477;28;20436;-58
2023/05/13 10:24:54;;;;;;;6.87;5.47;;;;;;;;;;5059951;28;20824;-59
2023/05/13 10:27:22;;;;;;;8.00;5.73;;;;;;;;;;5060182;28;20413;-59
2023/05/13 10:29:53;;;;;;;6.30;4.95;;;;;;;;;;5061847;28;20415;-59
2023/05/13 10:32:20;;;;;;;7.97;6.03;;;;;;;;;;5060940;28;20483;-60
2023/05/13 10:34:47;;;;;;;8.88;5.60;;;;;;;;;;5062092;28;20477;-59
2023/05/13 10:37:24;;;;;;;7.15;5.32;;;;;;;;;;5060556;28;20415;-60
2023/05/13 10:40:13;;;;;;;6.45;5.45;;;;;;;;;;5060475;28;20405;-59
2023/05/13 10:42:41;;;;;;;7.37;5.73;;;;;;;;;;5060083;28;20475;-59
2023/05/13 10:45:10;;;;;;;6.78;5.15;;;;;;;;;;5059444;28;20421;-60
2023/05/13 10:47:37;;;;;;;6.38;5.40;;;;;;;;;;5061769;28;20421;-60
2023/05/13 10:50:08;;;;;;;6.30;5.40;;;;;;;;;;5058837;28;20905;-58
2023/05/13 10:52:46;;;;;;;8.20;5.05;;;;;;;;;;5058999;28;20404;-65
2023/05/13 10:55:17;;;;;;;9.13;5.10;;;;;;;;;;5062338;28;20756;-63
2023/05/13 10:57:59;;;;;;;6.40;5.45;;;;;;;;;;5063123;28;20413;-64
2023/05/13 11:00:31;;;;;;;8.77;5.35;;;;;;;;;;5063455;28;20411;-62
2023/05/13 11:02:58;;;;;;;6.47;4.90;;;;;;;;;;5059941;28;20895;-63
2023/05/13 11:05:25;;;;;;;9.30;5.00;;;;;;;;;;5061405;28;20425;-62
2023/05/13 11:07:56;;;;;;;7.70;5.00;;;;;;;;;;5064327;28;20412;-60
2023/05/13 11:10:28;;;;;;;8.05;5.00;;;;;;;;;;5061557;28;20423;-63
2023/05/13 11:13:08;;;;;;;7.93;4.88;;;;;;;;;;5061801;28;20492;-63
2023/05/13 11:15:46;;;;;;;5.80;4.80;;;;;;;;;;5068193;28;20415;-65
2023/05/13 11:18:13;;;;;;;6.43;4.28;;;;;;;;;;5058396;28;20534;-64
2023/05/13 11:20:40;;;;;;;7.90;4.43;;;;;;;;;;5057972;28;20891;-63
2023/05/13 11:23:07;;;;;;;5.33;4.33;;;;;;;;;;5058078;28;20425;-63
2023/05/13 11:25:35;;;;;;;6.03;4.60;;;;;;;;;;5057356;28;20483;-64
2023/05/13 11:28:03;;;;;;;5.00;4.35;;;;;;;;;;5057590;28;20471;-66
2023/05/13 11:30:30;;;;;;;12.30;5.10;;;;;;;;;;5059504;28;20407;-64
2023/05/13 11:33:01;;;;;;;6.00;4.85;;;;;;;;;;5062412;28;20475;-64
2023/05/13 11:35:29;;;;;;;7.80;4.70;;;;;;;;;;5068329;28;20439;-63
2023/05/13 11:37:56;;;;;;;7.20;5.05;;;;;;;;;;5066957;28;20421;-63
2023/05/13 11:40:23;;;;;;;7.07;4.90;;;;;;;;;;5068905;28;20426;-62
2023/05/13 11:42:50;;;;;;;6.78;5.07;;;;;;;;;;5065276;28;20486;-62
2023/05/13 11:45:17;;;;;;;7.57;5.00;;;;;;;;;;5065560;28;20415;-61
2023/05/13 11:47:44;;;;;;;8.82;4.88;;;;;;;;;;5062193;28;20942;-61
2023/05/13 11:50:22;;;;;;;11.13;4.80;;;;;;;;;;5063232;28;20461;-61
2023/05/13 11:52:53;;;;;;;7.40;5.20;;;;;;;;;;5062484;28;20950;-61
2023/05/13 11:55:26;;;;;;;9.00;5.07;;;;;;;;;;5061728;28;20413;-61
2023/05/13 11:57:54;;;;;;;5.25;4.43;;;;;;;;;;5063328;28;20405;-61
2023/05/13 12:00:25;;;;;;;8.35;3.97;;;;;;;;;;5060702;28;20413;-61
2023/05/13 12:02:52;;;;;;;5.80;4.45;;;;;;;;;;5065455;28;20908;-61
2023/05/13 12:05:19;;;;;;;5.32;4.15;;;;;;;;;;5064439;28;20473;-61
2023/05/13 12:07:48;;;;;;;6.32;4.35;;;;;;;;;;5064660;28;20420;-61
2023/05/13 12:10:15;;;;;;;6.38;4.40;;;;;;;;;;5062342;28;20423;-61
2023/05/13 12:12:44;;;;;;;5.68;3.97;;;;;;;;;;5052845;28;20471;-61
2023/05/13 12:15:11;;;;;;;5.90;3.80;;;;;;;;;;5053144;28;20492;-60
2023/05/13 12:17:38;;;;;;;6.10;3.88;;;;;;;;;;5052857;28;20421;-61
2023/05/13 12:20:10;;;;;;;6.18;3.92;;;;;;;;;;5060519;28;20473;-61
2023/05/13 12:22:37;;;;;;;6.25;3.85;;;;;;;;;;5064057;28;20497;-61
2023/05/13 12:25:19;;;;;;;6.90;4.23;;;;;;;;;;5062940;28;20818;-61
2023/05/13 12:27:52;;;;;;;7.20;4.20;;;;;;;;;;5051727;28;20467;-61
2023/05/13 12:30:19;;;;;;;6.80;4.20;;;;;;;;;;5060271;28;20465;-61
2023/05/13 12:32:46;;;;;;;5.32;3.63;;;;;;;;;;5067946;28;20419;-61
2023/05/13 12:35:14;;;;;;;5.35;3.60;;;;;;;;;;5065735;28;20412;-61
2023/05/13 12:37:41;;;;;;;6.38;3.60;;;;;;;;;;5067766;28;20465;-60
2023/05/13 12:40:11;;;;;;;5.90;3.75;;;;;;;;;;5064406;28;20428;-61
2023/05/13 12:42:38;;;;;;;6.20;3.40;;;;;;;;;;5060722;28;20414;-61
2023/05/13 12:45:07;;;;;;;6.40;3.47;;;;;;;;;;5061695;28;20421;-61
2023/05/13 12:47:48;;;;;;;4.18;3.10;;;;;;;;;;5062318;28;20475;-61
2023/05/13 12:50:16;;;;;;;5.07;3.63;;;;;;;;;;5060880;28;20425;-61
2023/05/13 12:52:43;;;;;;;6.18;3.78;;;;;;;;;;5067544;28;20424;-61
2023/05/13 12:55:11;;;;;;;5.13;3.38;;;;;;;;;;5051924;28;20421;-61
2023/05/13 12:57:38;;;;;;;7.00;3.70;;;;;;;;;;5052056;28;20417;-61
2023/05/13 13:00:08;;;;;;;5.50;3.50;;;;;;;;;;5054541;28;20415;-61
2023/05/13 13:02:35;;;;;;;5.07;3.50;;;;;;;;;;5065123;28;20838;-61